createdAt,value
2022-07-25T00:03:36.091Z,23.10
2022-07-25T00:10:21.499Z,23.00
2022-07-25T00:17:04.037Z,22.90
2022-07-25T00:23:46.517Z,22.80
2022-07-25T00:30:29.016Z,22.80
2022-07-25T00:37:11.403Z,22.80
2022-07-25T00:43:53.973Z,22.70
2022-07-25T00:50:36.757Z,22.50
2022-07-25T00:57:19.197Z,22.50
2022-07-25T01:04:02.679Z,22.50
2022-07-25T01:10:46.866Z,22.50
2022-07-25T01:17:29.318Z,22.60
2022-07-25T01:24:12.002Z,22.70
2022-07-25T01:30:54.662Z,22.70
2022-07-25T01:37:37.091Z,22.70
2022-07-25T01:44:19.803Z,22.60
2022-07-25T01:51:02.464Z,22.70
2022-07-25T01:57:49.897Z,22.60
2022-07-25T02:04:32.835Z,22.60
2022-07-25T02:11:15.328Z,22.50
2022-07-25T02:17:58.557Z,22.40
2022-07-25T02:24:41.114Z,22.30
2022-07-25T02:31:23.698Z,22.20
2022-07-25T02:38:06.235Z,22.20
2022-07-25T02:52:07.649Z,22.10
2022-07-25T02:58:49.992Z,22.00
2022-07-25T03:05:32.431Z,21.80
2022-07-25T03:12:14.771Z,21.60
2022-07-25T03:18:57.138Z,21.70
2022-07-25T03:25:39.553Z,21.70
2022-07-25T03:32:23.119Z,21.60
2022-07-25T03:39:05.808Z,21.60
2022-07-25T03:45:48.275Z,21.50
2022-07-25T03:52:30.964Z,21.40
2022-07-25T03:59:15.838Z,21.40
2022-07-25T04:05:58.163Z,21.40
2022-07-25T04:12:40.641Z,21.40
2022-07-25T04:19:23.011Z,21.50
2022-07-25T04:26:08.592Z,21.60
2022-07-25T04:32:51.223Z,21.80
2022-07-25T04:39:33.632Z,21.90
2022-07-25T04:46:20.399Z,22.00
2022-07-25T04:53:02.943Z,22.10
2022-07-25T04:59:45.435Z,22.00
2022-07-25T05:06:27.890Z,22.00
2022-07-25T05:13:10.245Z,22.00
2022-07-25T05:19:52.590Z,23.60
2022-07-25T05:26:35.169Z,27.40
2022-07-25T05:33:17.527Z,29.50
2022-07-25T05:40:00.428Z,31.90
2022-07-25T05:46:42.960Z,33.40
2022-07-25T05:53:25.935Z,34.20
2022-07-25T06:00:09.169Z,34.90
2022-07-25T06:06:52.111Z,34.70
2022-07-25T06:13:35.451Z,36.10
2022-07-25T06:20:18.443Z,36.10
2022-07-25T06:27:00.799Z,35.50
2022-07-25T06:33:43.396Z,35.40
2022-07-25T06:40:25.830Z,37.30
2022-07-25T06:47:12.532Z,36.90
2022-07-25T06:53:55.228Z,36.90
2022-07-25T07:07:56.776Z,38.70
2022-07-25T07:14:39.330Z,36.70
2022-07-25T07:21:21.935Z,38.50
2022-07-25T07:28:04.604Z,37.50
2022-07-25T07:34:47.147Z,38.50
2022-07-25T07:41:29.470Z,41.70
2022-07-25T07:48:12.044Z,41.00
2022-07-25T07:55:13.145Z,40.70
2022-07-25T08:01:55.580Z,42.40
2022-07-25T08:08:38.069Z,42.50
2022-07-25T08:22:46.853Z,44.10
2022-07-25T08:29:29.227Z,45.10
2022-07-25T08:36:11.630Z,44.50
2022-07-25T08:42:55.042Z,44.30
2022-07-25T08:49:37.484Z,45.50
2022-07-25T08:56:21.377Z,46.90
2022-07-25T09:03:06.423Z,46.40
2022-07-25T09:09:48.946Z,46.00
2022-07-25T09:16:34.015Z,46.60
2022-07-25T09:23:28.188Z,47.00
2022-07-25T09:30:15.377Z,44.80
2022-07-25T09:36:58.378Z,44.00
2022-07-25T09:43:42.670Z,45.20
2022-07-25T09:50:27.605Z,46.10
2022-07-25T09:57:10.240Z,46.30
2022-07-25T10:04:17.392Z,44.30
2022-07-25T10:10:59.880Z,43.80
2022-07-25T10:17:42.271Z,43.00
2022-07-25T10:24:34.143Z,43.10
2022-07-25T10:31:29.514Z,44.70
2022-07-25T10:38:12.085Z,44.50
2022-07-25T10:44:58.393Z,43.30
2022-07-25T10:51:51.475Z,41.50
2022-07-25T10:58:52.851Z,42.10
2022-07-25T11:13:04.034Z,39.10
2022-07-25T11:20:00.025Z,38.00
2022-07-25T11:26:51.564Z,36.60
2022-07-25T11:33:38.393Z,36.70
2022-07-25T11:40:22.699Z,36.80
2022-07-25T11:47:07.408Z,36.90
2022-07-25T11:53:51.290Z,36.40
2022-07-25T12:08:17.515Z,37.60
2022-07-25T12:14:59.884Z,37.20
2022-07-25T12:21:42.251Z,37.30
2022-07-25T12:28:24.860Z,37.60
2022-07-25T12:35:09.591Z,37.40
2022-07-25T12:41:52.115Z,37.30
2022-07-25T12:48:34.526Z,36.80
2022-07-25T12:55:19.383Z,36.20
2022-07-25T13:02:02.203Z,35.80
2022-07-25T13:08:45.602Z,36.00
2022-07-25T13:15:28.171Z,36.10
2022-07-25T13:22:10.799Z,36.60
2022-07-25T13:28:56.572Z,37.30
2022-07-25T13:35:42.122Z,36.80
2022-07-25T13:42:24.844Z,36.90
2022-07-25T13:49:08.192Z,36.60
2022-07-25T13:55:51.740Z,36.80
2022-07-25T14:02:52.528Z,37.60
2022-07-25T14:09:35.159Z,37.60
2022-07-25T14:16:19.115Z,37.40
2022-07-25T14:23:01.557Z,37.00
2022-07-25T14:29:44.090Z,36.80
2022-07-25T14:36:26.474Z,36.90
2022-07-25T14:43:09.099Z,36.60
2022-07-25T14:49:51.484Z,36.70
2022-07-25T14:56:34.206Z,36.50
2022-07-25T15:03:16.708Z,36.70
2022-07-25T15:09:59.245Z,36.90
2022-07-25T15:16:43.029Z,36.70
2022-07-25T15:23:29.696Z,36.60
2022-07-25T15:30:13.460Z,36.10
2022-07-25T15:36:56.192Z,36.00
2022-07-25T15:43:39.866Z,35.30
2022-07-25T15:50:23.183Z,34.40
2022-07-25T15:57:07.064Z,33.60
2022-07-25T16:03:49.734Z,33.10
2022-07-25T16:10:33.377Z,32.80
2022-07-25T16:17:15.818Z,33.20
2022-07-25T16:23:58.226Z,33.60
2022-07-25T16:30:40.641Z,33.60
2022-07-25T16:37:23.077Z,33.60
2022-07-25T16:44:06.834Z,33.80
2022-07-25T16:50:50.178Z,33.90
2022-07-25T16:57:32.621Z,34.00
2022-07-25T17:04:15.093Z,34.00
2022-07-25T17:10:57.747Z,34.00
2022-07-25T17:17:40.165Z,34.20
2022-07-25T17:24:22.507Z,34.40
2022-07-25T17:31:05.443Z,34.00
2022-07-25T17:37:47.940Z,33.60
2022-07-25T17:44:30.523Z,33.40
2022-07-25T17:51:12.951Z,33.30
2022-07-25T17:57:55.412Z,32.80
2022-07-25T18:04:37.799Z,32.40
2022-07-25T18:11:20.250Z,32.20
2022-07-25T18:18:02.907Z,31.80
2022-07-25T18:24:45.273Z,31.50
2022-07-25T18:31:27.917Z,31.10
2022-07-25T18:38:11.483Z,30.80
2022-07-25T18:44:53.828Z,30.60
2022-07-25T18:51:36.227Z,30.20
2022-07-25T18:58:18.577Z,29.70
2022-07-25T19:05:00.976Z,29.30
2022-07-25T19:11:43.936Z,29.10
2022-07-25T19:18:29.442Z,28.90
2022-07-25T19:25:12.042Z,28.80
2022-07-25T19:31:54.458Z,28.60
2022-07-25T19:38:36.793Z,28.50
2022-07-25T19:45:19.327Z,28.40
2022-07-25T19:52:02.106Z,28.30
2022-07-25T19:58:45.106Z,28.10
2022-07-25T20:05:27.448Z,27.80
2022-07-25T20:12:10.501Z,27.50
2022-07-25T20:18:53.506Z,27.30
2022-07-25T20:25:35.883Z,27.30
2022-07-25T20:32:18.287Z,27.20
2022-07-25T20:39:00.658Z,27.10
2022-07-25T20:45:45.823Z,26.90
2022-07-25T20:52:30.985Z,26.80
2022-07-25T20:59:13.520Z,26.60
2022-07-25T21:05:55.939Z,26.50
2022-07-25T21:12:38.487Z,26.40
2022-07-25T21:19:20.967Z,26.20
2022-07-25T21:26:03.406Z,26.10
2022-07-25T21:32:45.949Z,26.00
2022-07-25T21:39:28.437Z,25.80
2022-07-25T21:46:10.903Z,25.70
2022-07-25T21:52:53.994Z,25.60
2022-07-25T21:59:36.458Z,25.50
2022-07-25T22:06:19.282Z,25.40
2022-07-25T22:13:02.315Z,25.40
2022-07-25T22:19:45.325Z,25.40
2022-07-25T22:26:27.753Z,25.30
2022-07-25T22:33:10.112Z,25.20
2022-07-25T22:39:52.472Z,25.10
2022-07-25T22:46:38.999Z,24.90
2022-07-25T22:53:21.501Z,24.80
2022-07-25T23:00:07.563Z,24.90
2022-07-25T23:13:50.414Z,24.30
2022-07-25T23:20:32.787Z,24.30
2022-07-25T23:27:15.898Z,24.20
2022-07-25T23:33:58.394Z,24.30
2022-07-25T23:40:41.155Z,24.10
2022-07-25T23:47:26.813Z,24.20
2022-07-25T23:54:21.896Z,24.10
